sensor_id;sensor_type;location;lat;lon;timestamp;temperature;humidity
6018;DHT22;3037;51.068;13.780;2023-03-01T00:00:37;-2.30;1.00
6018;DHT22;3037;51.068;13.780;2023-03-01T00:03:02;-2.20;1.00
6018;DHT22;3037;51.068;13.780;2023-03-01T00:05:28;-2.20;1.00
6018;DHT22;3037;51.068;13.780;2023-03-01T00:07:54;-2.10;1.00
6018;DHT22;3037;51.068;13.780;2023-03-01T00:10:19;-2.00;1.00
6018;DHT22;3037;51.068;13.780;2023-03-01T00:12:45;-1.80;1.00
6018;DHT22;3037;51.068;13.780;2023-03-01T00:15:10;-2.20;1.00
6018;DHT22;3037;51.068;13.780;2023-03-01T00:17:37;-2.10;1.00
6018;DHT22;3037;51.068;13.780;2023-03-01T00:20:02;-2.30;1.00
6018;DHT22;3037;51.068;13.780;2023-03-01T00:22:28;-2.40;1.00
6018;DHT22;3037;51.068;13.780;2023-03-01T00:24:54;-2.40;1.00
6018;DHT22;3037;51.068;13.780;2023-03-01T00:27:19;-2.50;1.00
6018;DHT22;3037;51.068;13.780;2023-03-01T00:29:45;-2.50;1.00
6018;DHT22;3037;51.068;13.780;2023-03-01T00:32:10;-2.40;1.00
6018;DHT22;3037;51.068;13.780;2023-03-01T00:34:36;-2.50;1.00
6018;DHT22;3037;51.068;13.780;2023-03-01T00:37:01;-2.60;1.00
6018;DHT22;3037;51.068;13.780;2023-03-01T00:39:31;-2.60;1.00
6018;DHT22;3037;51.068;13.780;2023-03-01T00:41:57;-2.70;1.00
6018;DHT22;3037;51.068;13.780;2023-03-01T00:44:22;-2.60;99.90
6018;DHT22;3037;51.068;13.780;2023-03-01T00:46:48;-2.60;1.00
6018;DHT22;3037;51.068;13.780;2023-03-01T00:49:13;-2.60;53.90
6018;DHT22;3037;51.068;13.780;2023-03-01T00:51:39;-2.70;99.90
6018;DHT22;3037;51.068;13.780;2023-03-01T00:54:08;-2.70;1.00
6018;DHT22;3037;51.068;13.780;2023-03-01T00:56:34;-2.60;99.90
6018;DHT22;3037;51.068;13.780;2023-03-01T00:59:00;-2.60;1.00
6018;DHT22;3037;51.068;13.780;2023-03-01T01:01:28;-2.50;1.00
6018;DHT22;3037;51.068;13.780;2023-03-01T01:04:11;-2.50;99.90
6018;DHT22;3037;51.068;13.780;2023-03-01T01:06:40;-2.50;99.90
6018;DHT22;3037;51.068;13.780;2023-03-01T01:09:08;-2.60;99.90
6018;DHT22;3037;51.068;13.780;2023-03-01T01:11:35;-2.60;1.00
6018;DHT22;3037;51.068;13.780;2023-03-01T01:14:02;-2.70;1.00
6018;DHT22;3037;51.068;13.780;2023-03-01T01:16:29;-2.60;1.00
6018;DHT22;3037;51.068;13.780;2023-03-01T01:18:55;-2.70;1.00
6018;DHT22;3037;51.068;13.780;2023-03-01T01:21:22;-2.80;1.00
6018;DHT22;3037;51.068;13.780;2023-03-01T01:23:49;-2.80;99.90
6018;DHT22;3037;51.068;13.780;2023-03-01T01:26:21;-2.70;99.90
6018;DHT22;3037;51.068;13.780;2023-03-01T01:28:47;-2.70;99.90
6018;DHT22;3037;51.068;13.780;2023-03-01T01:31:14;-2.80;1.00
6018;DHT22;3037;51.068;13.780;2023-03-01T01:33:39;-3.00;1.00
6018;DHT22;3037;51.068;13.780;2023-03-01T01:36:06;-3.00;72.90
6018;DHT22;3037;51.068;13.780;2023-03-01T01:38:32;-3.00;1.00
6018;DHT22;3037;51.068;13.780;2023-03-01T01:40:58;-2.90;99.90
6018;DHT22;3037;51.068;13.780;2023-03-01T01:43:33;-2.70;1.00
6018;DHT22;3037;51.068;13.780;2023-03-01T01:48:52;-2.80;1.00
6018;DHT22;3037;51.068;13.780;2023-03-01T01:51:23;-2.90;99.90
6018;DHT22;3037;51.068;13.780;2023-03-01T01:53:56;-2.90;1.00
6018;DHT22;3037;51.068;13.780;2023-03-01T01:56:24;-2.90;99.90
6018;DHT22;3037;51.068;13.780;2023-03-01T01:58:51;-3.00;1.00
6018;DHT22;3037;51.068;13.780;2023-03-01T02:01:17;-3.10;99.90
6018;DHT22;3037;51.068;13.780;2023-03-01T02:03:44;-3.00;99.90
6018;DHT22;3037;51.068;13.780;2023-03-01T02:06:31;-3.00;99.90
6018;DHT22;3037;51.068;13.780;2023-03-01T02:09:02;-3.00;1.00
6018;DHT22;3037;51.068;13.780;2023-03-01T02:11:29;-3.00;98.30
6018;DHT22;3037;51.068;13.780;2023-03-01T02:13:55;-3.00;1.00
6018;DHT22;3037;51.068;13.780;2023-03-01T02:16:21;-3.10;67.60
6018;DHT22;3037;51.068;13.780;2023-03-01T02:18:47;-3.10;99.90
6018;DHT22;3037;51.068;13.780;2023-03-01T02:23:54;-3.20;1.00
6018;DHT22;3037;51.068;13.780;2023-03-01T02:26:29;-3.10;1.00
6018;DHT22;3037;51.068;13.780;2023-03-01T02:28:59;-3.10;1.00
6018;DHT22;3037;51.068;13.780;2023-03-01T02:31:25;-3.20;99.90
6018;DHT22;3037;51.068;13.780;2023-03-01T02:34:15;-3.10;1.00
6018;DHT22;3037;51.068;13.780;2023-03-01T02:37:00;-3.20;99.90
6018;DHT22;3037;51.068;13.780;2023-03-01T02:42:04;-3.40;99.90
6018;DHT22;3037;51.068;13.780;2023-03-01T02:44:30;-3.40;1.00
6018;DHT22;3037;51.068;13.780;2023-03-01T02:46:56;-3.40;1.00
6018;DHT22;3037;51.068;13.780;2023-03-01T02:49:29;-3.40;1.00
6018;DHT22;3037;51.068;13.780;2023-03-01T02:52:22;-3.40;99.90
6018;DHT22;3037;51.068;13.780;2023-03-01T02:55:03;-3.50;99.90
6018;DHT22;3037;51.068;13.780;2023-03-01T02:57:32;-3.60;99.90
6018;DHT22;3037;51.068;13.780;2023-03-01T03:00:03;-3.60;1.00
6018;DHT22;3037;51.068;13.780;2023-03-01T03:02:33;-3.60;1.00
6018;DHT22;3037;51.068;13.780;2023-03-01T03:05:22;-3.70;99.90
6018;DHT22;3037;51.068;13.780;2023-03-01T03:07:48;-3.70;99.90
6018;DHT22;3037;51.068;13.780;2023-03-01T03:10:25;-3.70;99.90
6018;DHT22;3037;51.068;13.780;2023-03-01T03:12:54;-3.80;99.90
6018;DHT22;3037;51.068;13.780;2023-03-01T03:15:21;-3.70;99.90
6018;DHT22;3037;51.068;13.780;2023-03-01T03:17:48;-3.80;1.00
6018;DHT22;3037;51.068;13.780;2023-03-01T03:20:16;-3.80;1.00
6018;DHT22;3037;51.068;13.780;2023-03-01T03:22:45;-3.80;1.00
6018;DHT22;3037;51.068;13.780;2023-03-01T03:25:11;-3.70;1.00
6018;DHT22;3037;51.068;13.780;2023-03-01T03:27:41;-3.80;1.00
6018;DHT22;3037;51.068;13.780;2023-03-01T03:30:09;-3.90;1.00
6018;DHT22;3037;51.068;13.780;2023-03-01T03:32:38;-3.90;1.00
6018;DHT22;3037;51.068;13.780;2023-03-01T03:35:06;-3.80;1.00
6018;DHT22;3037;51.068;13.780;2023-03-01T03:37:39;-4.00;99.90
6018;DHT22;3037;51.068;13.780;2023-03-01T03:40:24;-4.00;99.90
6018;DHT22;3037;51.068;13.780;2023-03-01T03:42:49;-3.80;99.90
6018;DHT22;3037;51.068;13.780;2023-03-01T03:45:16;-3.80;99.90
6018;DHT22;3037;51.068;13.780;2023-03-01T03:47:42;-3.90;99.90
6018;DHT22;3037;51.068;13.780;2023-03-01T03:50:09;-4.00;99.90
6018;DHT22;3037;51.068;13.780;2023-03-01T03:52:35;-3.90;99.90
6018;DHT22;3037;51.068;13.780;2023-03-01T03:55:00;-4.00;99.90
6018;DHT22;3037;51.068;13.780;2023-03-01T03:57:26;-3.90;99.90
6018;DHT22;3037;51.068;13.780;2023-03-01T03:59:51;-3.80;1.00
6018;DHT22;3037;51.068;13.780;2023-03-01T04:02:17;-3.90;1.00
6018;DHT22;3037;51.068;13.780;2023-03-01T04:04:50;-4.00;1.00
6018;DHT22;3037;51.068;13.780;2023-03-01T04:07:16;-3.80;1.00
6018;DHT22;3037;51.068;13.780;2023-03-01T04:09:43;-3.80;99.90
6018;DHT22;3037;51.068;13.780;2023-03-01T04:12:09;-4.00;99.90
6018;DHT22;3037;51.068;13.780;2023-03-01T04:14:35;-4.10;99.90
6018;DHT22;3037;51.068;13.780;2023-03-01T04:17:01;-4.20;1.00
6018;DHT22;3037;51.068;13.780;2023-03-01T04:19:29;-4.20;99.90
6018;DHT22;3037;51.068;13.780;2023-03-01T04:22:02;-4.20;99.90
6018;DHT22;3037;51.068;13.780;2023-03-01T04:24:34;-4.30;99.90
6018;DHT22;3037;51.068;13.780;2023-03-01T04:27:00;-4.30;1.00
6018;DHT22;3037;51.068;13.780;2023-03-01T04:29:25;-4.40;1.00
6018;DHT22;3037;51.068;13.780;2023-03-01T04:31:51;-4.20;1.00
6018;DHT22;3037;51.068;13.780;2023-03-01T04:34:16;-4.20;99.90
6018;DHT22;3037;51.068;13.780;2023-03-01T04:36:42;-4.30;1.00
6018;DHT22;3037;51.068;13.780;2023-03-01T04:39:08;-4.40;1.00
6018;DHT22;3037;51.068;13.780;2023-03-01T04:41:38;-4.30;1.00
6018;DHT22;3037;51.068;13.780;2023-03-01T04:44:05;-4.30;1.00
6018;DHT22;3037;51.068;13.780;2023-03-01T04:46:30;-4.20;99.90
6018;DHT22;3037;51.068;13.780;2023-03-01T04:48:56;-4.20;1.00
6018;DHT22;3037;51.068;13.780;2023-03-01T04:51:21;-4.30;99.90
6018;DHT22;3037;51.068;13.780;2023-03-01T04:53:47;-4.30;1.00
6018;DHT22;3037;51.068;13.780;2023-03-01T04:56:13;-4.30;1.00
6018;DHT22;3037;51.068;13.780;2023-03-01T04:58:39;-4.30;66.60
6018;DHT22;3037;51.068;13.780;2023-03-01T05:01:12;-4.30;1.00
6018;DHT22;3037;51.068;13.780;2023-03-01T05:03:47;-4.30;99.90
6018;DHT22;3037;51.068;13.780;2023-03-01T05:06:13;-4.50;1.00
6018;DHT22;3037;51.068;13.780;2023-03-01T05:08:40;-4.40;1.00
6018;DHT22;3037;51.068;13.780;2023-03-01T05:11:06;-4.40;1.00
6018;DHT22;3037;51.068;13.780;2023-03-01T05:13:34;-4.30;1.00
6018;DHT22;3037;51.068;13.780;2023-03-01T05:16:01;-4.30;1.00
6018;DHT22;3037;51.068;13.780;2023-03-01T05:18:29;-4.30;99.90
6018;DHT22;3037;51.068;13.780;2023-03-01T05:21:01;-4.40;99.90
6018;DHT22;3037;51.068;13.780;2023-03-01T05:23:26;-4.50;99.90
6018;DHT22;3037;51.068;13.780;2023-03-01T05:25:52;-4.40;1.00
6018;DHT22;3037;51.068;13.780;2023-03-01T05:28:19;-4.30;94.70
6018;DHT22;3037;51.068;13.780;2023-03-01T05:30:45;-4.40;1.00
6018;DHT22;3037;51.068;13.780;2023-03-01T05:33:11;-4.40;1.00
6018;DHT22;3037;51.068;13.780;2023-03-01T05:35:41;-4.50;1.00
6018;DHT22;3037;51.068;13.780;2023-03-01T05:38:07;-4.60;1.00
6018;DHT22;3037;51.068;13.780;2023-03-01T05:40:34;-4.70;99.90
6018;DHT22;3037;51.068;13.780;2023-03-01T05:42:59;-4.70;99.90
6018;DHT22;3037;51.068;13.780;2023-03-01T05:45:26;-4.50;1.00
6018;DHT22;3037;51.068;13.780;2023-03-01T05:47:53;-4.30;99.90
6018;DHT22;3037;51.068;13.780;2023-03-01T05:50:22;-3.90;99.90
6018;DHT22;3037;51.068;13.780;2023-03-01T05:52:57;-4.20;99.90
6018;DHT22;3037;51.068;13.780;2023-03-01T05:55:23;-4.50;1.00
6018;DHT22;3037;51.068;13.780;2023-03-01T05:57:49;-4.50;99.90
6018;DHT22;3037;51.068;13.780;2023-03-01T06:00:17;-4.50;1.00
6018;DHT22;3037;51.068;13.780;2023-03-01T06:02:43;-4.50;99.90
6018;DHT22;3037;51.068;13.780;2023-03-01T06:05:10;-4.50;99.90
6018;DHT22;3037;51.068;13.780;2023-03-01T06:07:36;-4.40;1.00
6018;DHT22;3037;51.068;13.780;2023-03-01T06:10:03;-4.30;1.00
6018;DHT22;3037;51.068;13.780;2023-03-01T06:12:34;-4.30;99.90
6018;DHT22;3037;51.068;13.780;2023-03-01T06:15:00;-4.10;99.90
6018;DHT22;3037;51.068;13.780;2023-03-01T06:17:28;-4.10;1.00
6018;DHT22;3037;51.068;13.780;2023-03-01T06:19:54;-4.00;1.00
6018;DHT22;3037;51.068;13.780;2023-03-01T06:22:20;-3.90;1.00
6018;DHT22;3037;51.068;13.780;2023-03-01T06:24:45;-4.00;1.00
6018;DHT22;3037;51.068;13.780;2023-03-01T06:27:11;-4.10;1.00
6018;DHT22;3037;51.068;13.780;2023-03-01T06:29:36;-4.10;1.00
6018;DHT22;3037;51.068;13.780;2023-03-01T06:32:03;-4.00;99.90
6018;DHT22;3037;51.068;13.780;2023-03-01T06:34:28;-3.90;1.00
6018;DHT22;3037;51.068;13.780;2023-03-01T06:36:54;-3.90;1.00
6018;DHT22;3037;51.068;13.780;2023-03-01T06:39:19;-3.80;1.00
6018;DHT22;3037;51.068;13.780;2023-03-01T06:41:45;-3.50;1.00
6018;DHT22;3037;51.068;13.780;2023-03-01T06:44:10;-3.40;99.90
6018;DHT22;3037;51.068;13.780;2023-03-01T06:46:36;-3.10;99.90
6018;DHT22;3037;51.068;13.780;2023-03-01T06:49:02;-3.00;50.20
6018;DHT22;3037;51.068;13.780;2023-03-01T06:51:30;-3.20;1.00
6018;DHT22;3037;51.068;13.780;2023-03-01T06:53:55;-3.20;78.20
6018;DHT22;3037;51.068;13.780;2023-03-01T06:56:21;-3.00;1.00
6018;DHT22;3037;51.068;13.780;2023-03-01T06:58:46;-3.00;12.00
6018;DHT22;3037;51.068;13.780;2023-03-01T07:01:12;-2.70;79.60
6018;DHT22;3037;51.068;13.780;2023-03-01T07:03:37;-2.60;1.00
6018;DHT22;3037;51.068;13.780;2023-03-01T07:06:03;-2.40;1.00
6018;DHT22;3037;51.068;13.780;2023-03-01T07:08:28;-2.10;1.00
6018;DHT22;3037;51.068;13.780;2023-03-01T07:11:00;-0.90;1.00
6018;DHT22;3037;51.068;13.780;2023-03-01T07:13:27;2.00;1.00
6018;DHT22;3037;51.068;13.780;2023-03-01T07:15:53;2.80;1.00
6018;DHT22;3037;51.068;13.780;2023-03-01T07:18:18;4.20;1.00
6018;DHT22;3037;51.068;13.780;2023-03-01T07:20:44;4.60;1.00
6018;DHT22;3037;51.068;13.780;2023-03-01T07:23:09;5.50;1.00
6018;DHT22;3037;51.068;13.780;2023-03-01T07:25:35;6.30;1.00
6018;DHT22;3037;51.068;13.780;2023-03-01T07:28:00;7.00;1.00
6018;DHT22;3037;51.068;13.780;2023-03-01T07:30:26;6.70;1.00
6018;DHT22;3037;51.068;13.780;2023-03-01T07:32:54;7.10;1.00
6018;DHT22;3037;51.068;13.780;2023-03-01T07:35:19;8.10;1.00
6018;DHT22;3037;51.068;13.780;2023-03-01T07:37:45;9.20;1.00
6018;DHT22;3037;51.068;13.780;2023-03-01T07:40:11;9.00;1.00
6018;DHT22;3037;51.068;13.780;2023-03-01T07:42:37;9.50;1.00
6018;DHT22;3037;51.068;13.780;2023-03-01T07:45:03;11.20;1.00
6018;DHT22;3037;51.068;13.780;2023-03-01T07:47:29;10.10;1.00
6018;DHT22;3037;51.068;13.780;2023-03-01T07:49:54;9.60;1.00
6018;DHT22;3037;51.068;13.780;2023-03-01T07:52:19;9.20;1.00
6018;DHT22;3037;51.068;13.780;2023-03-01T07:54:45;9.90;1.00
6018;DHT22;3037;51.068;13.780;2023-03-01T07:57:10;9.70;1.00
6018;DHT22;3037;51.068;13.780;2023-03-01T07:59:36;10.00;1.00
6018;DHT22;3037;51.068;13.780;2023-03-01T08:02:01;10.10;1.00
6018;DHT22;3037;51.068;13.780;2023-03-01T08:04:27;10.50;1.00
6018;DHT22;3037;51.068;13.780;2023-03-01T08:06:54;11.90;1.00
6018;DHT22;3037;51.068;13.780;2023-03-01T08:09:20;11.90;1.00
6018;DHT22;3037;51.068;13.780;2023-03-01T08:11:46;14.40;1.00
6018;DHT22;3037;51.068;13.780;2023-03-01T08:14:11;14.40;1.00
6018;DHT22;3037;51.068;13.780;2023-03-01T08:16:37;13.30;1.00
6018;DHT22;3037;51.068;13.780;2023-03-01T08:19:07;11.90;1.00
6018;DHT22;3037;51.068;13.780;2023-03-01T08:21:33;11.50;1.00
6018;DHT22;3037;51.068;13.780;2023-03-01T08:24:00;12.40;1.00
6018;DHT22;3037;51.068;13.780;2023-03-01T08:26:26;13.60;1.00
6018;DHT22;3037;51.068;13.780;2023-03-01T08:28:52;14.90;1.00
6018;DHT22;3037;51.068;13.780;2023-03-01T08:31:23;14.10;1.00
6018;DHT22;3037;51.068;13.780;2023-03-01T08:33:51;15.20;1.00
6018;DHT22;3037;51.068;13.780;2023-03-01T08:36:25;16.90;1.00
6018;DHT22;3037;51.068;13.780;2023-03-01T08:38:51;15.90;1.00
6018;DHT22;3037;51.068;13.780;2023-03-01T08:41:17;14.90;1.00
6018;DHT22;3037;51.068;13.780;2023-03-01T08:43:43;15.20;1.00
6018;DHT22;3037;51.068;13.780;2023-03-01T08:46:09;15.50;1.00
6018;DHT22;3037;51.068;13.780;2023-03-01T08:48:35;14.60;1.00
6018;DHT22;3037;51.068;13.780;2023-03-01T08:51:12;14.40;1.00
6018;DHT22;3037;51.068;13.780;2023-03-01T08:53:38;16.20;1.00
6018;DHT22;3037;51.068;13.780;2023-03-01T08:56:04;15.60;1.00
6018;DHT22;3037;51.068;13.780;2023-03-01T08:58:29;18.30;1.00
6018;DHT22;3037;51.068;13.780;2023-03-01T09:00:55;19.00;1.00
6018;DHT22;3037;51.068;13.780;2023-03-01T09:03:22;18.20;1.00
6018;DHT22;3037;51.068;13.780;2023-03-01T09:05:47;16.70;1.00
6018;DHT22;3037;51.068;13.780;2023-03-01T09:08:16;18.60;1.00
6018;DHT22;3037;51.068;13.780;2023-03-01T09:10:41;18.00;1.00
6018;DHT22;3037;51.068;13.780;2023-03-01T09:13:07;18.20;1.00
6018;DHT22;3037;51.068;13.780;2023-03-01T09:15:32;18.70;1.00
6018;DHT22;3037;51.068;13.780;2023-03-01T09:17:59;19.00;1.00
6018;DHT22;3037;51.068;13.780;2023-03-01T09:20:24;18.40;1.00
6018;DHT22;3037;51.068;13.780;2023-03-01T09:22:50;18.60;1.00
6018;DHT22;3037;51.068;13.780;2023-03-01T09:25:15;19.70;1.00
6018;DHT22;3037;51.068;13.780;2023-03-01T09:27:41;18.40;1.00
6018;DHT22;3037;51.068;13.780;2023-03-01T09:30:08;18.70;1.00
6018;DHT22;3037;51.068;13.780;2023-03-01T09:32:33;18.20;1.00
6018;DHT22;3037;51.068;13.780;2023-03-01T09:34:59;19.40;1.00
6018;DHT22;3037;51.068;13.780;2023-03-01T09:37:34;19.20;1.00
6018;DHT22;3037;51.068;13.780;2023-03-01T09:40:00;19.60;1.00
6018;DHT22;3037;51.068;13.780;2023-03-01T09:42:27;18.60;1.00
6018;DHT22;3037;51.068;13.780;2023-03-01T09:45:11;17.30;1.00
6018;DHT22;3037;51.068;13.780;2023-03-01T09:47:41;19.50;1.00
6018;DHT22;3037;51.068;13.780;2023-03-01T09:50:14;18.80;1.00
6018;DHT22;3037;51.068;13.780;2023-03-01T09:52:49;17.60;1.00
6018;DHT22;3037;51.068;13.780;2023-03-01T10:01:10;19.00;1.00
6018;DHT22;3037;51.068;13.780;2023-03-01T10:03:48;19.00;1.00
6018;DHT22;3037;51.068;13.780;2023-03-01T10:06:21;17.70;1.00
6018;DHT22;3037;51.068;13.780;2023-03-01T10:08:58;19.60;1.00
6018;DHT22;3037;51.068;13.780;2023-03-01T10:11:30;18.30;1.00
6018;DHT22;3037;51.068;13.780;2023-03-01T10:16:34;18.90;1.00
6018;DHT22;3037;51.068;13.780;2023-03-01T10:19:03;18.30;1.00
6018;DHT22;3037;51.068;13.780;2023-03-01T10:21:31;19.80;1.00
6018;DHT22;3037;51.068;13.780;2023-03-01T10:24:10;19.20;1.00
6018;DHT22;3037;51.068;13.780;2023-03-01T10:26:43;19.60;1.00
6018;DHT22;3037;51.068;13.780;2023-03-01T10:29:11;19.30;1.00
6018;DHT22;3037;51.068;13.780;2023-03-01T10:34:14;18.90;1.00
6018;DHT22;3037;51.068;13.780;2023-03-01T10:36:42;18.80;1.00
6018;DHT22;3037;51.068;13.780;2023-03-01T10:39:14;19.30;1.00
6018;DHT22;3037;51.068;13.780;2023-03-01T10:41:53;19.90;1.00
6018;DHT22;3037;51.068;13.780;2023-03-01T10:44:45;19.50;1.00
6018;DHT22;3037;51.068;13.780;2023-03-01T10:47:23;17.00;1.00
6018;DHT22;3037;51.068;13.780;2023-03-01T10:50:03;17.30;1.00
6018;DHT22;3037;51.068;13.780;2023-03-01T10:52:35;18.90;1.00
6018;DHT22;3037;51.068;13.780;2023-03-01T10:55:26;17.00;1.00
6018;DHT22;3037;51.068;13.780;2023-03-01T10:58:20;16.50;1.00
6018;DHT22;3037;51.068;13.780;2023-03-01T11:03:22;18.20;1.00
6018;DHT22;3037;51.068;13.780;2023-03-01T11:05:57;17.50;1.00
6018;DHT22;3037;51.068;13.780;2023-03-01T11:08:31;16.10;1.00
6018;DHT22;3037;51.068;13.780;2023-03-01T11:13:35;15.30;1.00
6018;DHT22;3037;51.068;13.780;2023-03-01T11:16:07;14.80;1.00
6018;DHT22;3037;51.068;13.780;2023-03-01T11:18:35;14.30;1.00
6018;DHT22;3037;51.068;13.780;2023-03-01T11:21:01;14.40;1.00
6018;DHT22;3037;51.068;13.780;2023-03-01T11:23:30;15.20;1.00
6018;DHT22;3037;51.068;13.780;2023-03-01T11:26:05;15.70;1.00
6018;DHT22;3037;51.068;13.780;2023-03-01T11:28:33;13.40;1.00
6018;DHT22;3037;51.068;13.780;2023-03-01T11:31:03;12.20;1.00
6018;DHT22;3037;51.068;13.780;2023-03-01T11:36:27;12.90;1.00
6018;DHT22;3037;51.068;13.780;2023-03-01T11:38:55;13.00;1.00
6018;DHT22;3037;51.068;13.780;2023-03-01T11:41:27;12.80;1.00
6018;DHT22;3037;51.068;13.780;2023-03-01T11:44:14;11.70;1.00
6018;DHT22;3037;51.068;13.780;2023-03-01T11:54:41;11.30;1.00
6018;DHT22;3037;51.068;13.780;2023-03-01T12:00:06;11.20;1.00
6018;DHT22;3037;51.068;13.780;2023-03-01T12:02:50;11.10;1.00
6018;DHT22;3037;51.068;13.780;2023-03-01T12:05:26;10.50;1.00
6018;DHT22;3037;51.068;13.780;2023-03-01T12:08:14;9.60;1.00
6018;DHT22;3037;51.068;13.780;2023-03-01T12:11:12;10.00;1.00
6018;DHT22;3037;51.068;13.780;2023-03-01T12:21:42;9.10;1.00
6018;DHT22;3037;51.068;13.780;2023-03-01T12:24:22;8.80;1.00
6018;DHT22;3037;51.068;13.780;2023-03-01T12:27:07;8.70;1.00
6018;DHT22;3037;51.068;13.780;2023-03-01T12:29:41;8.80;1.00
6018;DHT22;3037;51.068;13.780;2023-03-01T12:35:16;8.50;1.00
6018;DHT22;3037;51.068;13.780;2023-03-01T12:43:44;8.20;1.00
6018;DHT22;3037;51.068;13.780;2023-03-01T12:46:49;8.20;1.00
6018;DHT22;3037;51.068;13.780;2023-03-01T12:49:23;8.90;1.00
6018;DHT22;3037;51.068;13.780;2023-03-01T12:51:59;9.10;1.00
6018;DHT22;3037;51.068;13.780;2023-03-01T12:54:29;9.20;1.00
6018;DHT22;3037;51.068;13.780;2023-03-01T12:56:57;8.80;1.00
6018;DHT22;3037;51.068;13.780;2023-03-01T12:59:29;8.40;1.00
6018;DHT22;3037;51.068;13.780;2023-03-01T13:07:53;8.10;1.00
6018;DHT22;3037;51.068;13.780;2023-03-01T13:10:32;8.00;1.00
6018;DHT22;3037;51.068;13.780;2023-03-01T13:13:12;7.60;1.00
6018;DHT22;3037;51.068;13.780;2023-03-01T13:15:38;8.20;1.00
6018;DHT22;3037;51.068;13.780;2023-03-01T13:18:28;8.40;1.00
6018;DHT22;3037;51.068;13.780;2023-03-01T13:20:58;8.50;1.00
6018;DHT22;3037;51.068;13.780;2023-03-01T13:23:37;8.60;1.00
6018;DHT22;3037;51.068;13.780;2023-03-01T13:33:52;8.20;1.00
6018;DHT22;3037;51.068;13.780;2023-03-01T13:39:03;8.70;1.00
6018;DHT22;3037;51.068;13.780;2023-03-01T13:44:26;8.10;1.00
6018;DHT22;3037;51.068;13.780;2023-03-01T13:49:41;8.20;1.00
6018;DHT22;3037;51.068;13.780;2023-03-01T13:54:58;8.40;1.00
6018;DHT22;3037;51.068;13.780;2023-03-01T13:57:27;8.50;1.00
6018;DHT22;3037;51.068;13.780;2023-03-01T13:59:55;8.00;1.00
6018;DHT22;3037;51.068;13.780;2023-03-01T14:02:20;8.00;1.00
6018;DHT22;3037;51.068;13.780;2023-03-01T14:04:56;7.70;1.00
6018;DHT22;3037;51.068;13.780;2023-03-01T14:07:23;7.50;1.00
6018;DHT22;3037;51.068;13.780;2023-03-01T14:09:57;7.70;1.00
6018;DHT22;3037;51.068;13.780;2023-03-01T14:12:52;8.20;1.00
6018;DHT22;3037;51.068;13.780;2023-03-01T14:15:34;8.10;1.00
6018;DHT22;3037;51.068;13.780;2023-03-01T14:18:29;7.80;1.00
6018;DHT22;3037;51.068;13.780;2023-03-01T14:20:57;8.00;1.00
6018;DHT22;3037;51.068;13.780;2023-03-01T14:23:23;7.40;1.00
6018;DHT22;3037;51.068;13.780;2023-03-01T14:25:52;7.50;1.00
6018;DHT22;3037;51.068;13.780;2023-03-01T14:28:22;7.30;1.00
6018;DHT22;3037;51.068;13.780;2023-03-01T14:30:53;8.00;1.00
6018;DHT22;3037;51.068;13.780;2023-03-01T14:35:54;8.20;1.00
6018;DHT22;3037;51.068;13.780;2023-03-01T14:38:22;8.10;1.00
6018;DHT22;3037;51.068;13.780;2023-03-01T14:40:51;8.00;1.00
6018;DHT22;3037;51.068;13.780;2023-03-01T14:43:22;8.30;1.00
6018;DHT22;3037;51.068;13.780;2023-03-01T14:45:49;7.60;1.00
6018;DHT22;3037;51.068;13.780;2023-03-01T14:48:15;7.70;1.00
6018;DHT22;3037;51.068;13.780;2023-03-01T14:50:42;7.60;1.00
6018;DHT22;3037;51.068;13.780;2023-03-01T14:53:17;7.70;1.00
6018;DHT22;3037;51.068;13.780;2023-03-01T14:55:46;7.70;1.00
6018;DHT22;3037;51.068;13.780;2023-03-01T14:58:15;7.30;1.00
6018;DHT22;3037;51.068;13.780;2023-03-01T15:00:48;7.40;1.00
6018;DHT22;3037;51.068;13.780;2023-03-01T15:03:20;7.50;1.00
6018;DHT22;3037;51.068;13.780;2023-03-01T15:05:49;7.70;1.00
6018;DHT22;3037;51.068;13.780;2023-03-01T15:08:19;7.60;1.00
6018;DHT22;3037;51.068;13.780;2023-03-01T15:13:34;7.20;1.00
6018;DHT22;3037;51.068;13.780;2023-03-01T15:16:06;7.20;1.00
6018;DHT22;3037;51.068;13.780;2023-03-01T15:18:34;7.50;1.00
6018;DHT22;3037;51.068;13.780;2023-03-01T15:21:09;7.30;1.00
6018;DHT22;3037;51.068;13.780;2023-03-01T15:23:37;7.40;1.00
6018;DHT22;3037;51.068;13.780;2023-03-01T15:26:03;7.40;1.00
6018;DHT22;3037;51.068;13.780;2023-03-01T15:28:30;7.20;1.00
6018;DHT22;3037;51.068;13.780;2023-03-01T15:31:12;7.20;1.00
6018;DHT22;3037;51.068;13.780;2023-03-01T15:33:41;7.10;1.00
6018;DHT22;3037;51.068;13.780;2023-03-01T15:36:39;7.10;1.00
6018;DHT22;3037;51.068;13.780;2023-03-01T15:39:30;7.10;1.00
6018;DHT22;3037;51.068;13.780;2023-03-01T15:41:51;7.10;1.00
6018;DHT22;3037;51.068;13.780;2023-03-01T15:44:25;7.00;1.00
6018;DHT22;3037;51.068;13.780;2023-03-01T15:46:51;6.80;1.00
6018;DHT22;3037;51.068;13.780;2023-03-01T15:52:02;6.50;1.00
6018;DHT22;3037;51.068;13.780;2023-03-01T15:54:29;6.40;1.00
6018;DHT22;3037;51.068;13.780;2023-03-01T15:56:54;6.40;1.00
6018;DHT22;3037;51.068;13.780;2023-03-01T15:59:20;6.30;1.00
6018;DHT22;3037;51.068;13.780;2023-03-01T16:01:47;6.00;1.00
6018;DHT22;3037;51.068;13.780;2023-03-01T16:04:15;5.90;1.00
6018;DHT22;3037;51.068;13.780;2023-03-01T16:06:52;5.90;1.00
6018;DHT22;3037;51.068;13.780;2023-03-01T16:09:22;6.00;1.00
6018;DHT22;3037;51.068;13.780;2023-03-01T16:11:48;6.20;1.00
6018;DHT22;3037;51.068;13.780;2023-03-01T16:14:14;6.20;1.00
6018;DHT22;3037;51.068;13.780;2023-03-01T16:16:40;6.00;1.00
6018;DHT22;3037;51.068;13.780;2023-03-01T16:19:05;5.80;1.00
6018;DHT22;3037;51.068;13.780;2023-03-01T16:21:31;5.70;1.00
6018;DHT22;3037;51.068;13.780;2023-03-01T16:23:56;5.60;1.00
6018;DHT22;3037;51.068;13.780;2023-03-01T16:26:22;5.90;1.00
6018;DHT22;3037;51.068;13.780;2023-03-01T16:28:48;5.70;1.00
6018;DHT22;3037;51.068;13.780;2023-03-01T16:31:17;5.50;1.00
6018;DHT22;3037;51.068;13.780;2023-03-01T16:33:43;5.40;1.00
6018;DHT22;3037;51.068;13.780;2023-03-01T16:36:14;5.40;1.00
6018;DHT22;3037;51.068;13.780;2023-03-01T16:38:41;5.60;1.00
6018;DHT22;3037;51.068;13.780;2023-03-01T16:41:12;5.60;1.00
6018;DHT22;3037;51.068;13.780;2023-03-01T16:43:38;5.20;1.00
6018;DHT22;3037;51.068;13.780;2023-03-01T16:46:14;5.10;1.00
6018;DHT22;3037;51.068;13.780;2023-03-01T16:48:39;5.00;1.00
6018;DHT22;3037;51.068;13.780;2023-03-01T16:51:05;4.90;1.00
6018;DHT22;3037;51.068;13.780;2023-03-01T16:53:33;4.80;1.00
6018;DHT22;3037;51.068;13.780;2023-03-01T16:56:01;4.60;1.00
6018;DHT22;3037;51.068;13.780;2023-03-01T16:58:27;4.50;1.00
6018;DHT22;3037;51.068;13.780;2023-03-01T17:00:54;4.30;1.00
6018;DHT22;3037;51.068;13.780;2023-03-01T17:03:24;4.20;1.00
6018;DHT22;3037;51.068;13.780;2023-03-01T17:05:50;4.20;1.00
6018;DHT22;3037;51.068;13.780;2023-03-01T17:08:16;4.10;1.00
6018;DHT22;3037;51.068;13.780;2023-03-01T17:10:41;4.00;1.00
6018;DHT22;3037;51.068;13.780;2023-03-01T17:13:08;3.80;1.00
6018;DHT22;3037;51.068;13.780;2023-03-01T17:15:34;3.70;1.00
6018;DHT22;3037;51.068;13.780;2023-03-01T17:18:00;3.50;1.00
6018;DHT22;3037;51.068;13.780;2023-03-01T17:20:26;3.20;1.00
6018;DHT22;3037;51.068;13.780;2023-03-01T17:22:51;3.20;1.00
6018;DHT22;3037;51.068;13.780;2023-03-01T17:25:17;3.10;1.00
6018;DHT22;3037;51.068;13.780;2023-03-01T17:27:43;2.90;1.00
6018;DHT22;3037;51.068;13.780;2023-03-01T17:30:12;2.90;1.00
6018;DHT22;3037;51.068;13.780;2023-03-01T17:32:38;2.80;1.00
6018;DHT22;3037;51.068;13.780;2023-03-01T17:35:05;2.80;1.00
6018;DHT22;3037;51.068;13.780;2023-03-01T17:37:30;2.70;1.00
6018;DHT22;3037;51.068;13.780;2023-03-01T17:39:56;2.50;1.00
6018;DHT22;3037;51.068;13.780;2023-03-01T17:42:21;2.50;1.00
6018;DHT22;3037;51.068;13.780;2023-03-01T17:44:47;2.40;1.00